KPWA/PWA METAR and TAF weather

Enter ICAO airport designator
Station Type Date Time Source
KPWA METAR 2020/03/28 07:53 UTC NOAA

KPWA 280753Z AUTO 18011KT 9SM CLR 21/18 A2958 RMK AO2 SLP001 T02110183


Station Type Date Time Source
KPWA Decoded METAR 2020/03/28 07:53 UTC NOAA

WILEY POST, OK, United States (KPWA) 35-32N 97-39W 397M
Mar 28, 2020 - 03:53 AM EDT / 2020.03.28 0753 UTC
Wind: from the S (180 degrees) at 13 MPH (11 KT):0
Visibility: 9 mile(s):0
Sky conditions: clear
Temperature: 70.0 F (21.1 C)
Dew Point: 64.9 F (18.3 C)
Relative Humidity: 84%
Pressure (altimeter): 29.58 in. Hg (1001 hPa)
ob: KPWA 280753Z AUTO 18011KT 9SM CLR 21/18 A2958 RMK AO2 SLP001 T02110183
cycle: 8

Station Type Date Time Source
KPWA TAF UTC NOAA

Error!

Example: see airport list